Time;durP1;ratioP1;P1;durP2;ratioP2;P2;SDS_P1;SDS_P2;PMS_P1;PMS_P2;Temp;Humidity;BMP_temperature;BMP_pressure;BME280_temperature;BME280_humidity;BME280_pressure;Samples;Min_cycle;Max_cycle;Signal;HPM_P1;HPM_P2
2021/07/11 00:01:44;;;;;;;;;28.75;28.50;;;;;25.13;64.92;101075.53;6316618;22;8816;-81
2021/07/11 00:04:12;;;;;;;;;27.75;27.75;;;;;25.27;64.87;101077.38;6283285;22;8769;-81
2021/07/11 00:06:39;;;;;;;;;21.25;21.25;;;;;25.05;65.50;101074.00;6282048;22;8817;-81
2021/07/11 00:09:12;;;;;;;;;30.25;29.25;;;;;24.95;65.91;101070.84;6317680;22;8847;-80
2021/07/11 00:11:40;;;;;;;;;28.25;28.00;;;;;25.17;65.29;101076.28;6317400;22;8801;-81
2021/07/11 00:14:09;;;;;;;;;27.75;27.75;;;;;25.06;65.20;101082.06;6316228;22;8804;-81
2021/07/11 00:16:37;;;;;;;;;28.00;28.00;;;;;24.94;65.73;101076.91;6306773;22;8781;-82
2021/07/11 00:19:07;;;;;;;;;26.75;26.75;;;;;24.85;65.45;101073.78;6281412;22;9565;-81
2021/07/11 00:21:35;;;;;;;;;27.50;26.75;;;;;24.88;65.29;101075.78;6308857;22;8777;-81
2021/07/11 00:24:03;;;;;;;;;25.50;25.50;;;;;24.90;65.26;101068.47;6307546;22;8954;-81
2021/07/11 00:26:31;;;;;;;;;28.00;28.00;;;;;25.06;66.28;101075.59;6317083;22;8781;-82
2021/07/11 00:28:59;;;;;;;;;28.00;28.00;;;;;25.23;65.20;101083.91;6304808;22;8793;-81
2021/07/11 00:31:27;;;;;;;;;27.50;27.50;;;;;25.33;64.63;101075.69;6308356;22;8781;-81
2021/07/11 00:33:54;;;;;;;;;6.80;6.80;;;;;25.25;62.96;101065.69;6316984;22;8777;-81
2021/07/11 00:36:22;;;;;;;;;25.25;24.50;;;;;25.35;63.11;101061.91;6316555;22;8781;-81
2021/07/11 00:38:52;;;;;;;;;27.25;27.25;;;;;25.25;63.15;101051.53;6318012;22;8784;-81
2021/07/11 00:41:19;;;;;;;;;19.40;19.40;;;;;25.38;59.49;101050.56;6316696;22;8922;-81
2021/07/11 00:43:47;;;;;;;;;23.80;23.80;;;;;25.38;62.17;101055.41;6316387;22;8792;-81
2021/07/11 00:46:14;;;;;;;;;24.40;24.40;;;;;25.41;62.28;101044.03;6289889;22;8781;-81
2021/07/11 00:48:43;;;;;;;;;14.80;14.80;;;;;25.47;59.99;101047.22;6316708;22;8785;-81
2021/07/11 00:51:11;;;;;;;;;20.60;19.60;;;;;25.34;56.88;101046.97;6308519;22;8776;-81
2021/07/11 00:53:51;;;;;;;;;22.40;22.40;;;;;25.50;59.06;101038.66;6316509;22;8761;-80
2021/07/11 00:56:20;;;;;;;;;18.20;18.20;;;;;25.43;58.28;101037.94;6317062;22;8828;-81
2021/07/11 00:58:48;;;;;;;;;22.60;22.60;;;;;25.59;59.58;101045.81;6315015;22;8777;-81
2021/07/11 01:01:32;;;;;;;;;22.80;22.80;;;;;25.43;58.15;101038.75;6289250;22;8875;-81
2021/07/11 01:04:05;;;;;;;;;19.80;19.80;;;;;25.44;57.83;101045.22;6309424;22;8777;-81
2021/07/11 01:06:39;;;;;;;;;19.40;19.40;;;;;25.52;59.99;101043.88;6307255;22;8809;-81
2021/07/11 01:09:11;;;;;;;;;21.00;21.00;;;;;25.50;58.56;101047.16;6316323;22;8769;-81
2021/07/11 01:11:50;;;;;;;;;23.40;23.40;;;;;25.28;56.77;101045.03;6308647;22;8825;-81
2021/07/11 01:14:18;;;;;;;;;16.80;16.80;;;;;25.22;56.55;101047.50;6289281;22;9435;-81
2021/07/11 01:17:09;;;;;;;;;19.80;19.80;;;;;25.32;59.25;101046.59;6284272;22;8804;-80
2021/07/11 01:20:28;;;;;;;;;28.75;27.75;;;;;25.00;61.62;101058.28;6307663;22;8785;-81
2021/07/11 01:22:58;;;;;;;;;36.75;33.00;;;;;24.65;63.95;101054.56;6316323;22;8801;-80
2021/07/11 01:25:46;;;;;;;;;36.00;33.25;;;;;24.57;64.42;101057.91;6316023;22;8780;-80
2021/07/11 01:28:23;;;;;;;;;41.50;35.00;;;;;24.40;65.34;101062.50;6316706;22;8769;-81
2021/07/11 01:30:53;;;;;;;;;40.25;34.50;;;;;24.38;66.02;101048.78;6316140;22;8766;-80
2021/07/11 01:33:24;;;;;;;;;38.00;34.00;;;;;23.87;67.04;101055.19;6315756;22;8769;-81
2021/07/11 01:35:52;;;;;;;;;39.75;35.50;;;;;23.84;67.20;101053.16;6288847;22;8781;-80
2021/07/11 01:38:22;;;;;;;;;34.50;32.25;;;;;23.88;68.15;101056.00;6306579;22;8897;-80
2021/07/11 01:40:55;;;;;;;;;44.75;38.50;;;;;23.63;68.60;101050.50;6278236;22;9001;-80
2021/07/11 01:43:25;;;;;;;;;43.75;35.50;;;;;23.81;68.11;101057.63;6289327;22;9446;-80
2021/07/11 01:45:54;;;;;;;;;41.00;36.00;;;;;24.30;66.68;101060.50;6280355;22;8953;-80
2021/07/11 01:48:22;;;;;;;;;39.50;34.75;;;;;24.52;65.98;101058.34;6314324;22;8777;-80
2021/07/11 01:51:04;;;;;;;;;39.50;35.50;;;;;24.50;66.23;101058.75;6291326;22;8773;-80
2021/07/11 01:53:38;;;;;;;;;38.50;34.25;;;;;24.48;66.42;101055.56;6316220;22;9454;-80
2021/07/11 01:56:08;;;;;;;;;38.50;35.00;;;;;24.60;66.37;101062.69;6307362;22;8757;-80
2021/07/11 01:58:39;;;;;;;;;36.75;33.75;;;;;24.43;66.04;101050.34;6316641;22;8781;-81
2021/07/11 02:01:12;;;;;;;;;36.50;33.25;;;;;24.34;66.94;101056.47;6288702;22;8940;-81
2021/07/11 02:03:39;;;;;;;;;38.75;35.00;;;;;24.31;67.30;101045.19;6311190;22;8799;-81
2021/07/11 02:06:09;;;;;;;;;36.00;33.25;;;;;24.01;67.06;101057.91;6316241;22;8776;-80
2021/07/11 02:08:39;;;;;;;;;38.25;33.25;;;;;24.19;66.95;101046.47;6289832;22;8765;-81
2021/07/11 02:11:09;;;;;;;;;35.50;32.25;;;;;23.95;68.11;101053.91;6315768;22;8791;-80
2021/07/11 02:13:50;;;;;;;;;37.50;33.50;;;;;23.94;68.40;101054.34;6289492;22;8872;-80
2021/07/11 02:16:36;;;;;;;;;34.75;32.50;;;;;24.20;67.96;101050.91;6306326;22;8842;-80
2021/07/11 02:19:07;;;;;;;;;38.75;35.00;;;;;24.71;65.69;101057.75;6316983;22;8777;-81
2021/07/11 02:21:39;;;;;;;;;32.25;30.00;;;;;24.63;65.65;101056.22;6292956;22;8765;-80
2021/07/11 02:24:09;;;;;;;;;34.75;32.00;;;;;24.54;66.45;101065.19;6291166;22;8781;-80
2021/07/11 02:26:40;;;;;;;;;36.00;33.25;;;;;24.83;65.37;101064.91;6291929;22;8757;-81
2021/07/11 02:29:10;;;;;;;;;31.25;30.50;;;;;24.64;65.67;101061.47;6318209;22;8784;-80
2021/07/11 02:31:42;;;;;;;;;38.00;34.25;;;;;24.87;64.92;101065.69;6290866;22;8769;-81
2021/07/11 02:34:12;;;;;;;;;38.50;34.75;;;;;24.89;64.94;101068.88;6317339;22;8807;-81
2021/07/11 02:36:45;;;;;;;;;34.75;31.75;;;;;24.90;65.02;101071.28;6318182;22;8800;-81
2021/07/11 02:39:17;;;;;;;;;34.75;32.50;;;;;24.88;64.48;101076.56;6317971;22;8852;-81
2021/07/11 02:41:54;;;;;;;;;34.50;32.25;;;;;25.03;64.73;101079.25;6317609;22;8850;-81
2021/07/11 02:44:25;;;;;;;;;33.25;31.50;;;;;25.15;63.33;101079.56;6291194;22;8859;-81
2021/07/11 02:47:07;;;;;;;;;34.50;32.00;;;;;24.80;65.70;101086.34;6308184;22;9490;-81
2021/07/11 02:49:36;;;;;;;;;35.00;32.50;;;;;24.71;65.63;101082.41;6290553;22;9507;-80
2021/07/11 02:52:07;;;;;;;;;40.00;35.00;;;;;24.75;65.77;101086.78;6281248;22;8808;-79
2021/07/11 02:54:41;;;;;;;;;40.25;35.25;;;;;24.84;65.63;101084.28;6317367;22;8784;-80
2021/07/11 02:57:18;;;;;;;;;34.50;32.00;;;;;24.94;65.17;101080.56;6317467;22;8797;-80
2021/07/11 02:59:48;;;;;;;;;32.75;31.00;;;;;25.15;64.60;101081.56;6307860;22;8781;-81
2021/07/11 03:02:18;;;;;;;;;35.50;32.75;;;;;24.83;65.36;101079.84;6290669;22;8769;-81
2021/07/11 03:04:50;;;;;;;;;33.50;32.00;;;;;24.87;64.75;101074.16;6309011;22;8813;-81
2021/07/11 03:07:19;;;;;;;;;33.25;31.00;;;;;24.70;66.65;101077.97;6308151;22;8777;-81
2021/07/11 03:09:48;;;;;;;;;32.75;30.75;;;;;24.64;66.29;101074.78;6317719;22;8811;-81
2021/07/11 03:12:17;;;;;;;;;35.75;32.75;;;;;24.81;65.60;101073.00;6317975;22;8777;-81
2021/07/11 03:14:50;;;;;;;;;29.00;28.75;;;;;25.16;64.88;101074.69;6290244;22;8785;-81
2021/07/11 03:17:26;;;;;;;;;26.75;26.75;;;;;25.10;63.77;101070.72;6290780;22;8856;-81
2021/07/11 03:20:14;;;;;;;;;27.25;27.25;;;;;25.19;64.13;101076.66;6308086;22;8785;-81
2021/07/11 03:22:45;;;;;;;;;27.50;27.50;;;;;25.10;60.14;101073.53;6317145;22;8766;-81
2021/07/11 03:25:13;;;;;;;;;27.50;27.50;;;;;25.18;63.37;101067.38;6281446;22;8813;-81
2021/07/11 03:27:41;;;;;;;;;30.75;30.00;;;;;25.20;62.46;101078.28;6317318;22;9455;-82
2021/07/11 03:30:16;;;;;;;;;28.50;28.50;;;;;25.32;63.24;101074.09;6307658;22;8785;-81
2021/07/11 03:32:53;;;;;;;;;26.50;26.50;;;;;25.26;60.24;101078.63;6290998;22;8765;-82
2021/07/11 03:35:31;;;;;;;;;27.25;27.25;;;;;25.28;62.06;101074.13;6317258;22;8765;-81
2021/07/11 03:38:00;;;;;;;;;27.00;27.00;;;;;25.38;62.32;101070.38;6308472;22;8861;-81
2021/07/11 03:40:36;;;;;;;;;27.00;27.00;;;;;25.25;61.42;101077.81;6290428;22;8824;-81
2021/07/11 03:43:08;;;;;;;;;29.75;29.50;;;;;25.16;60.35;101072.66;6290321;22;8773;-80
2021/07/11 03:45:40;;;;;;;;;28.25;27.00;;;;;25.09;61.14;101067.09;6317110;22;8815;-81
2021/07/11 03:48:16;;;;;;;;;25.00;25.00;;;;;25.08;61.95;101073.97;6290439;22;8838;-81
2021/07/11 03:50:50;;;;;;;;;28.00;28.00;;;;;25.27;62.40;101072.53;6317072;22;8789;-81
2021/07/11 03:53:22;;;;;;;;;28.00;28.00;;;;;25.16;61.24;101072.66;6317542;22;8788;-81
2021/07/11 03:55:51;;;;;;;;;30.25;29.75;;;;;25.50;61.79;101066.16;6317615;22;8769;-81
2021/07/11 03:58:21;;;;;;;;;31.50;30.25;;;;;25.43;60.61;101064.22;6317181;22;8777;-80
2021/07/11 04:00:49;;;;;;;;;29.00;29.00;;;;;25.73;61.80;101059.81;6307802;22;8890;-81
2021/07/11 04:03:19;;;;;;;;;28.00;27.75;;;;;25.78;60.35;101070.69;6313066;22;8797;-80
2021/07/11 04:05:47;;;;;;;;;27.80;27.60;;;;;25.88;60.63;101066.88;6316675;22;8777;-81
2021/07/11 04:08:17;;;;;;;;;34.25;29.75;;;;;25.92;60.19;101066.84;6317021;22;8861;-80
2021/07/11 04:10:46;;;;;;;;;24.20;24.20;;;;;25.93;60.76;101060.75;6289750;22;8781;-80
2021/07/11 04:13:15;;;;;;;;;29.25;29.00;;;;;25.99;60.89;101050.53;6289877;22;8838;-81
2021/07/11 04:15:51;;;;;;;;;31.00;29.75;;;;;26.08;60.69;101064.16;6307278;22;8773;-81
2021/07/11 04:18:23;;;;;;;;;29.25;29.00;;;;;26.20;60.22;101065.59;6281405;22;8773;-81
2021/07/11 04:20:55;;;;;;;;;29.50;29.00;;;;;26.21;59.86;101058.69;6289987;22;8777;-81
2021/07/11 04:23:28;;;;;;;;;29.00;29.00;;;;;26.19;59.88;101061.94;6316686;22;8769;-80
2021/07/11 04:25:56;;;;;;;;;31.80;30.80;;;;;26.26;60.01;101050.50;6290637;22;8793;-80
2021/07/11 04:28:33;;;;;;;;;29.00;28.75;;;;;26.39;59.66;101069.78;6317038;22;8773;-80
2021/07/11 04:31:29;;;;;;;;;29.00;29.00;;;;;26.43;59.18;101062.78;6288210;22;8804;-79
2021/07/11 04:34:27;;;;;;;;;28.00;28.00;;;;;26.53;58.75;101061.00;6307092;22;8781;-79
2021/07/11 04:37:23;;;;;;;;;25.80;25.80;;;;;26.72;59.31;101059.47;6307173;22;8791;-79
2021/07/11 04:40:28;;;;;;;;;28.80;28.60;;;;;26.86;58.78;101050.69;6305890;22;8796;-80
2021/07/11 04:43:26;;;;;;;;;34.80;32.00;;;;;26.85;58.25;101055.56;6307400;22;8876;-79
2021/07/11 04:46:23;;;;;;;;;28.20;28.20;;;;;27.02;57.92;101058.50;6308539;22;8781;-79
2021/07/11 04:49:22;;;;;;;;;28.60;28.20;;;;;27.17;58.16;101059.03;6307578;22;8872;-80
2021/07/11 04:52:18;;;;;;;;;32.60;30.60;;;;;27.25;57.80;101057.66;6307111;22;8811;-78
2021/07/11 04:55:17;;;;;;;;;29.60;29.00;;;;;27.29;57.50;101053.50;6306284;22;8807;-79
2021/07/11 04:58:16;;;;;;;;;31.60;30.00;;;;;27.37;56.12;101062.66;6288877;22;8781;-78
2021/07/11 05:01:12;;;;;;;;;31.40;30.20;;;;;27.31;55.72;101053.06;6311507;22;8784;-80
2021/07/11 05:04:07;;;;;;;;;30.60;29.00;;;;;27.32;56.37;101052.63;6307775;22;8781;-79
2021/07/11 05:07:03;;;;;;;;;33.60;31.20;;;;;27.40;55.42;101048.41;6306245;22;8900;-80
2021/07/11 05:09:58;;;;;;;;;30.40;29.80;;;;;27.56;55.62;101055.38;6308188;22;8895;-79
2021/07/11 05:12:54;;;;;;;;;29.80;29.00;;;;;27.77;55.68;101049.25;6286907;22;8805;-80
2021/07/11 05:15:50;;;;;;;;;33.40;31.60;;;;;27.81;55.42;101049.94;6307087;22;9471;-80
2021/07/11 05:18:45;;;;;;;;;28.40;28.40;;;;;27.92;55.08;101047.66;6311911;22;8792;-79
2021/07/11 05:21:41;;;;;;;;;29.80;29.00;;;;;27.97;55.27;101049.16;6285176;22;8776;-79
2021/07/11 05:24:36;;;;;;;;;29.80;29.20;;;;;27.92;54.25;101046.88;6306406;22;9467;-80
2021/07/11 05:27:32;;;;;;;;;33.80;31.20;;;;;28.14;54.32;101061.34;6305877;22;9038;-80
2021/07/11 05:30:28;;;;;;;;;30.20;29.40;;;;;28.33;54.21;101060.50;6305904;22;8784;-80
2021/07/11 05:33:23;;;;;;;;;30.40;29.60;;;;;28.27;53.19;101062.25;6297308;22;8836;-81
2021/07/11 05:36:19;;;;;;;;;33.80;31.80;;;;;28.47;53.91;101063.00;6306031;22;8781;-81
2021/07/11 05:39:15;;;;;;;;;26.60;26.60;;;;;28.45;53.14;101062.66;6305263;22;8859;-82
2021/07/11 05:42:10;;;;;;;;;29.00;28.80;;;;;28.67;53.94;101062.06;6305620;22;8819;-81
2021/07/11 05:45:06;;;;;;;;;32.20;30.40;;;;;28.96;52.24;101060.06;6304504;22;8793;-80
2021/07/11 05:48:02;;;;;;;;;30.40;29.60;;;;;29.24;52.58;101057.69;6305294;22;8891;-81
2021/07/11 05:50:59;;;;;;;;;35.60;32.80;;;;;29.27;53.10;101059.63;6305952;22;8765;-82
2021/07/11 05:53:55;;;;;;;;;29.20;29.00;;;;;29.46;51.92;101058.66;6305565;22;8793;-81
2021/07/11 05:56:50;;;;;;;;;33.80;31.60;;;;;29.59;52.16;101059.47;6306745;22;9514;-81
2021/07/11 05:59:46;;;;;;;;;31.80;30.80;;;;;29.61;51.57;101056.19;6308258;22;8820;-82
2021/07/11 06:02:41;;;;;;;;;26.40;26.40;;;;;29.55;50.14;101053.09;6286414;22;8861;-82
2021/07/11 06:05:37;;;;;;;;;27.60;27.60;;;;;29.61;49.09;101045.59;6307033;22;8816;-80
2021/07/11 06:08:33;;;;;;;;;26.40;26.40;;;;;29.79;49.41;101047.09;6307425;22;8998;-83
2021/07/11 06:11:29;;;;;;;;;29.20;28.20;;;;;30.12;49.62;101041.97;6287224;22;8800;-81
2021/07/11 06:14:24;;;;;;;;;26.20;26.00;;;;;30.09;47.97;101051.44;6307568;22;9494;-82
2021/07/11 06:17:20;;;;;;;;;25.40;25.40;;;;;30.04;48.38;101044.22;6307658;22;8815;-81
2021/07/11 06:20:16;;;;;;;;;28.20;28.20;;;;;30.22;49.51;101043.69;6307750;22;8765;-81
2021/07/11 06:23:11;;;;;;;;;22.60;22.60;;;;;30.49;49.08;101045.22;6307308;22;9503;-81
2021/07/11 06:26:07;;;;;;;;;22.20;22.20;;;;;30.32;47.33;101048.22;6306845;22;8785;-81
2021/07/11 06:29:03;;;;;;;;;23.20;23.20;;;;;30.46;46.12;101041.25;6307562;22;8781;-79
2021/07/11 06:32:00;;;;;;;;;24.40;24.40;;;;;30.56;47.07;101042.91;6308810;22;8789;-81
2021/07/11 06:34:55;;;;;;;;;24.40;24.40;;;;;30.76;46.68;101039.00;6306638;22;8813;-80
2021/07/11 06:37:52;;;;;;;;;23.60;23.60;;;;;30.79;45.92;101040.94;6286902;22;8811;-79
2021/07/11 06:40:47;;;;;;;;;22.00;22.00;;;;;31.02;46.07;101037.63;6286398;22;8777;-79
2021/07/11 06:43:43;;;;;;;;;24.20;23.80;;;;;30.99;43.82;101030.00;6308857;22;8805;-81
2021/07/11 06:46:39;;;;;;;;;24.40;24.40;;;;;31.16;43.88;101030.59;6306182;22;8876;-79
2021/07/11 06:49:06;;;;;;;;;22.60;22.60;;;;;31.37;44.39;101035.53;6309107;22;8781;-80
2021/07/11 06:51:34;;;;;;;;;19.00;19.00;;;;;31.45;42.75;101034.00;6289856;22;8781;-78
2021/07/11 06:54:02;;;;;;;;;21.00;21.00;;;;;31.46;43.59;101038.44;6318285;22;8796;-79
2021/07/11 06:56:30;;;;;;;;;23.20;23.20;;;;;31.62;43.27;101037.41;6290997;22;8761;-79
2021/07/11 06:58:58;;;;;;;;;22.60;22.60;;;;;31.76;43.36;101039.69;6317738;22;8777;-79
2021/07/11 07:01:28;;;;;;;;;21.60;21.60;;;;;31.89;43.71;101035.97;6281692;22;8789;-80
2021/07/11 07:03:56;;;;;;;;;23.60;23.60;;;;;31.92;42.26;101035.03;6310378;22;8781;-81
2021/07/11 07:06:24;;;;;;;;;24.60;24.60;;;;;32.01;41.89;101033.00;6290628;22;8773;-79
2021/07/11 07:08:55;;;;;;;;;19.80;19.80;;;;;32.32;42.13;101037.88;6317524;22;8761;-79
2021/07/11 07:11:25;;;;;;;;;23.00;23.00;;;;;32.28;41.62;101034.31;6316761;22;8780;-79
2021/07/11 07:13:53;;;;;;;;;24.40;24.40;;;;;32.39;42.09;101040.44;6317406;22;8896;-80
2021/07/11 07:16:49;;;;;;;;;22.60;22.60;;;;;32.61;41.60;101031.72;6306483;22;8880;-80
2021/07/11 07:19:44;;;;;;;;;21.80;21.80;;;;;32.68;41.16;101033.47;6307119;22;8785;-79
2021/07/11 07:22:41;;;;;;;;;21.20;21.20;;;;;32.77;40.76;101033.47;6285670;22;8819;-80
2021/07/11 07:25:37;;;;;;;;;19.60;19.60;;;;;32.83;41.07;101031.56;6288239;22;8803;-78
2021/07/11 07:28:33;;;;;;;;;23.00;23.00;;;;;32.92;40.04;101038.13;6307184;22;8814;-79
2021/07/11 07:31:28;;;;;;;;;24.20;24.20;;;;;33.17;39.72;101033.31;6285322;22;8781;-79
2021/07/11 07:34:24;;;;;;;;;21.40;21.40;;;;;33.22;40.42;101044.16;6306688;22;8919;-78
2021/07/11 07:37:20;;;;;;;;;19.40;19.40;;;;;33.52;39.61;101038.69;6286204;22;8795;-79
2021/07/11 07:40:17;;;;;;;;;20.00;20.00;;;;;33.30;38.66;101036.81;6306363;22;8816;-79
2021/07/11 07:43:13;;;;;;;;;21.20;21.20;;;;;33.43;38.91;101040.31;6306451;22;9488;-79
2021/07/11 07:46:09;;;;;;;;;22.20;22.20;;;;;33.33;38.37;101040.75;6306857;22;8819;-79
2021/07/11 07:49:05;;;;;;;;;21.00;21.00;;;;;33.72;37.92;101041.78;6306303;22;8761;-78
2021/07/11 07:52:01;;;;;;;;;19.60;19.60;;;;;33.62;37.10;101043.13;6306739;22;8819;-78
2021/07/11 07:54:56;;;;;;;;;20.20;20.20;;;;;34.03;36.93;101037.88;6305148;22;8776;-78
2021/07/11 07:57:52;;;;;;;;;21.40;21.00;;;;;33.88;36.86;101038.53;6305823;22;8807;-78
2021/07/11 08:00:48;;;;;;;;;22.60;22.60;;;;;34.05;37.87;101038.16;6305872;22;8785;-78
2021/07/11 08:03:44;;;;;;;;;19.80;19.80;;;;;34.28;37.21;101037.41;6305011;22;9538;-79
2021/07/11 08:06:42;;;;;;;;;18.80;18.80;;;;;34.39;36.25;101040.53;6285749;22;8789;-79
2021/07/11 08:09:37;;;;;;;;;17.40;17.40;;;;;34.53;35.37;101036.94;6306331;22;8812;-78
2021/07/11 08:12:34;;;;;;;;;20.80;19.20;;;;;34.78;35.44;101037.72;6303647;22;8847;-79
2021/07/11 08:15:29;;;;;;;;;18.00;18.00;;;;;34.52;34.65;101037.44;6285076;22;8816;-79
2021/07/11 08:18:25;;;;;;;;;11.60;11.20;;;;;34.46;34.10;101033.66;6284299;22;8773;-79
2021/07/11 08:20:57;;;;;;;;;15.20;15.20;;;;;34.43;33.17;101035.44;6315166;22;8855;-79
2021/07/11 08:23:25;;;;;;;;;12.60;12.60;;;;;34.46;31.53;101034.44;6316030;22;8788;-80
2021/07/11 08:26:23;;;;;;;;;12.40;12.40;;;;;34.77;32.35;101028.31;6305270;22;8863;-79
2021/07/11 08:29:19;;;;;;;;;12.40;12.40;;;;;34.83;30.57;101034.16;6298871;22;9499;-81
2021/07/11 08:32:15;;;;;;;;;14.60;14.60;;;;;34.90;30.71;101033.81;6306180;22;8788;-78
2021/07/11 08:35:11;;;;;;;;;14.80;14.80;;;;;34.94;30.33;101033.63;6284882;22;8838;-80
2021/07/11 08:38:08;;;;;;;;;12.20;12.20;;;;;34.81;28.44;101033.84;6306190;22;8827;-80
2021/07/11 08:41:04;;;;;;;;;13.20;13.20;;;;;35.10;29.18;101033.94;6288730;22;8833;-78
2021/07/11 08:44:01;;;;;;;;;13.00;13.00;;;;;35.25;29.75;101033.16;6305452;22;8823;-80
2021/07/11 08:46:57;;;;;;;;;13.80;13.00;;;;;35.25;28.67;101033.94;6304445;22;8880;-82
2021/07/11 08:49:53;;;;;;;;;12.20;12.20;;;;;34.91;29.06;101031.75;6305813;22;8843;-83
2021/07/11 08:52:49;;;;;;;;;10.20;10.20;;;;;35.40;29.27;101028.22;6304104;22;8887;-82
2021/07/11 08:55:44;;;;;;;;;12.40;12.40;;;;;35.87;28.01;101017.75;6304240;22;8858;-80
2021/07/11 08:58:48;;;;;;;;;10.80;10.80;;;;;36.09;28.82;101031.72;6284245;22;8789;-81
2021/07/11 09:01:43;;;;;;;;;11.00;11.00;;;;;35.74;28.82;101018.09;6303940;22;9685;-79
2021/07/11 09:04:41;;;;;;;;;13.00;13.00;;;;;35.70;28.42;101017.50;6303573;22;8804;-79
2021/07/11 09:07:39;;;;;;;;;13.00;13.00;;;;;35.50;28.73;101021.06;6284275;22;8792;-82
2021/07/11 09:11:00;;;;;;;;;13.60;13.60;;;;;35.54;28.69;101026.63;6285737;22;8862;-80
2021/07/11 09:13:56;;;;;;;;;14.60;14.60;;;;;35.20;29.31;101010.88;6307090;22;8801;-78
2021/07/11 09:16:54;;;;;;;;;14.40;14.40;;;;;35.58;29.14;101016.53;6304530;22;8785;-80
2021/07/11 09:19:51;;;;;;;;;11.80;11.80;;;;;35.53;27.68;101013.56;6306039;22;8847;-79
2021/07/11 09:23:04;;;;;;;;;12.00;12.00;;;;;35.53;29.74;101004.94;6306154;22;8910;-79
2021/07/11 09:26:08;;;;;;;;;13.80;13.80;;;;;35.71;29.19;101001.81;6283853;22;8946;-80
2021/07/11 09:28:38;;;;;;;;;12.40;12.40;;;;;35.73;29.06;101007.06;6314142;22;8761;-79
2021/07/11 09:31:36;;;;;;;;;11.60;11.60;;;;;35.68;28.60;101008.56;6304640;22;8825;-80
2021/07/11 09:34:04;;;;;;;;;12.00;12.00;;;;;35.93;30.21;101013.69;6279627;22;8817;-80
2021/07/11 09:37:17;;;;;;;;;14.20;14.20;;;;;35.65;29.74;101006.69;6305277;22;8785;-81
2021/07/11 09:40:18;;;;;;;;;12.60;12.60;;;;;35.51;28.65;101002.56;6306186;22;9295;-77
2021/07/11 09:42:52;;;;;;;;;14.60;14.40;;;;;35.55;29.23;100996.59;6306432;22;8788;-79
2021/07/11 09:45:30;;;;;;;;;13.00;13.00;;;;;35.91;28.12;101001.91;6306646;22;8781;-82
2021/07/11 09:48:08;;;;;;;;;10.60;10.60;;;;;36.10;27.21;100993.00;6279655;22;9502;-79
2021/07/11 09:50:36;;;;;;;;;13.00;13.00;;;;;36.22;27.93;101000.50;6314636;22;8781;-81
2021/07/11 09:53:07;;;;;;;;;12.40;12.40;;;;;36.43;27.04;101004.22;6315027;22;8824;-79
2021/07/11 09:55:36;;;;;;;;;9.80;9.80;;;;;36.14;27.83;100991.50;6308391;22;8859;-83
2021/07/11 09:58:08;;;;;;;;;12.00;12.00;;;;;36.23;27.54;100995.53;6314998;22;8869;-83
2021/07/11 10:01:04;;;;;;;;;12.80;12.80;;;;;36.43;27.29;100999.25;6284371;22;8817;-83
2021/07/11 10:04:00;;;;;;;;;12.80;12.80;;;;;36.57;27.32;101000.44;6305549;22;8800;-80
2021/07/11 10:06:55;;;;;;;;;13.80;13.80;;;;;36.07;28.29;100999.75;6285559;22;8809;-80
2021/07/11 10:09:51;;;;;;;;;13.00;13.00;;;;;36.02;27.30;100997.59;6306540;22;8777;-79
2021/07/11 10:12:47;;;;;;;;;11.60;11.60;;;;;36.24;28.89;101002.88;6306458;22;8847;-80
2021/07/11 10:15:43;;;;;;;;;11.20;11.20;;;;;36.44;28.52;100995.06;6305535;22;8867;-80
2021/07/11 10:18:40;;;;;;;;;12.20;12.20;;;;;36.71;28.30;101008.22;6305956;22;8781;-80
2021/07/11 10:21:27;;;;;;;;;14.00;14.00;;;;;36.40;27.73;100993.69;6315119;22;8803;-79
2021/07/11 10:23:56;;;;;;;;;16.60;15.60;;;;;36.68;28.04;101000.59;6292084;22;8761;-81
2021/07/11 10:26:39;;;;;;;;;14.80;14.80;;;;;36.57;27.40;101005.41;6315520;22;8808;-81
2021/07/11 10:29:13;;;;;;;;;12.40;12.40;;;;;36.76;27.89;100983.66;6316306;22;8850;-81
2021/07/11 10:32:21;;;;;;;;;10.00;10.00;;;;;36.28;28.47;100989.84;6284932;22;8784;-80
2021/07/11 10:34:48;;;;;;;;;11.40;11.40;;;;;36.48;28.28;100994.84;6314270;22;8799;-80
2021/07/11 10:37:25;;;;;;;;;14.00;14.00;;;;;36.29;27.94;100982.00;6308859;22;8789;-79
2021/07/11 10:40:31;;;;;;;;;14.20;14.20;;;;;36.52;28.06;100991.75;6307967;22;8788;-80
2021/07/11 10:43:23;;;;;;;;;12.80;12.80;;;;;36.62;28.71;100988.19;6294876;22;8836;-78
2021/07/11 10:46:06;;;;;;;;;13.00;13.00;;;;;36.47;27.61;100993.25;6309826;22;8792;-79
2021/07/11 10:49:14;;;;;;;;;12.80;12.80;;;;;36.38;27.11;100976.13;6306791;22;8797;-78
2021/07/11 10:51:58;;;;;;;;;11.40;11.40;;;;;36.69;27.71;100970.47;6307080;22;9533;-80
2021/07/11 10:54:30;;;;;;;;;12.60;12.60;;;;;37.13;28.11;100971.47;6280579;22;8800;-78
2021/07/11 10:57:43;;;;;;;;;12.60;12.60;;;;;36.79;27.14;100978.94;6306464;22;8881;-79
2021/07/11 11:00:30;;;;;;;;;11.00;11.00;;;;;36.95;26.83;100969.72;6312510;22;8789;-80
2021/07/11 11:02:59;;;;;;;;;16.80;15.60;;;;;37.04;27.56;100966.69;6308568;22;8804;-80
2021/07/11 11:05:40;;;;;;;;;11.20;11.20;;;;;37.11;26.85;100971.97;6315633;22;8777;-78
2021/07/11 11:08:13;;;;;;;;;13.40;13.40;;;;;37.07;26.73;100974.31;6307783;22;8761;-78
2021/07/11 11:11:09;;;;;;;;;10.60;10.60;;;;;36.87;26.14;100975.13;6307597;22;8885;-78
2021/07/11 11:13:37;;;;;;;;;11.40;11.40;;;;;36.96;25.29;100977.06;6310672;22;8797;-78
2021/07/11 11:16:31;;;;;;;;;11.40;11.40;;;;;37.14;26.82;100988.25;6292130;22;8922;-81
2021/07/11 11:19:29;;;;;;;;;10.00;10.00;;;;;36.94;26.16;100971.81;6287086;22;8789;-78
2021/07/11 11:22:01;;;;;;;;;11.20;11.20;;;;;36.35;27.11;100974.25;6279646;22;8824;-80
2021/07/11 11:24:58;;;;;;;;;9.20;9.20;;;;;36.10;27.17;100958.44;6308502;22;8784;-79
2021/07/11 11:27:55;;;;;;;;;11.60;11.60;;;;;36.51;27.37;100967.13;6286306;22;8836;-78
2021/07/11 11:30:51;;;;;;;;;13.60;13.60;;;;;36.26;27.82;100965.72;6306047;22;8807;-78
2021/07/11 11:34:05;;;;;;;;;10.20;10.20;;;;;36.05;27.33;100954.22;6288128;22;8778;-82
2021/07/11 11:36:48;;;;;;;;;10.00;10.00;;;;;36.36;27.96;100958.53;6313902;22;8816;-81
2021/07/11 11:39:22;;;;;;;;;7.20;7.20;;;;;36.38;27.19;100948.13;6316822;22;8785;-80
2021/07/11 11:42:21;;;;;;;;;11.80;11.80;;;;;36.75;26.92;100947.50;6304173;22;8884;-80
2021/07/11 11:45:19;;;;;;;;;11.20;11.20;;;;;36.97;26.54;100955.59;6305398;22;8781;-81
2021/07/11 11:48:16;;;;;;;;;11.20;11.20;;;;;37.37;27.15;100954.66;6307102;22;8797;-80
2021/07/11 11:51:17;;;;;;;;;11.60;11.60;;;;;37.22;25.28;100949.00;6306140;22;8863;-80
2021/07/11 11:54:33;;;;;;;;;9.20;9.20;;;;;37.35;24.81;100939.97;6295752;22;8859;-80
2021/07/11 11:57:06;;;;;;;;;13.20;13.20;;;;;37.47;26.07;100937.97;6281884;22;8777;-82
2021/07/11 11:59:38;;;;;;;;;11.00;11.00;;;;;37.14;26.54;100936.38;6317207;22;8781;-79
2021/07/11 12:02:34;;;;;;;;;11.00;11.00;;;;;37.45;25.39;100924.06;6285531;22;8785;-80
2021/07/11 12:05:15;;;;;;;;;12.60;12.60;;;;;37.17;25.42;100923.00;6306829;22;9486;-82
2021/07/11 12:08:11;;;;;;;;;12.20;12.20;;;;;37.44;26.40;100913.03;6286071;22;8813;-81
2021/07/11 12:11:08;;;;;;;;;12.60;12.60;;;;;37.58;26.44;100914.97;6285868;22;8773;-80
2021/07/11 12:14:12;;;;;;;;;13.00;12.00;;;;;37.74;25.37;100917.16;6295811;22;9522;-81
2021/07/11 12:17:13;;;;;;;;;10.80;10.80;;;;;37.43;25.01;100908.56;6306364;22;8800;-79
2021/07/11 12:20:10;;;;;;;;;11.60;11.60;;;;;37.66;24.84;100906.63;6266620;22;8765;-80
2021/07/11 12:23:10;;;;;;;;;10.20;10.20;;;;;37.24;24.77;100911.81;6305622;22;8858;-79
2021/07/11 12:26:07;;;;;;;;;9.80;9.80;;;;;37.30;25.81;100906.09;6302849;22;8823;-79
2021/07/11 12:28:36;;;;;;;;;11.40;11.40;;;;;37.42;25.47;100910.69;6317656;22;9540;-80
2021/07/11 12:31:36;;;;;;;;;12.80;12.80;;;;;37.41;25.19;100909.06;6282367;22;8785;-80
2021/07/11 12:34:07;;;;;;;;;11.00;11.00;;;;;37.66;24.88;100903.75;6279066;22;8916;-79